sensor_id;sensor_type;location;lat;lon;timestamp;P1;durP1;ratioP1;P2;durP2;ratioP2
71836;SDS011;59686;51.716;7.016;2023-02-28T00:00:25;4.77;;;3.57;;
71836;SDS011;59686;51.716;7.016;2023-02-28T00:02:51;4.90;;;3.60;;
71836;SDS011;59686;51.716;7.016;2023-02-28T00:05:21;4.60;;;3.80;;
71836;SDS011;59686;51.716;7.016;2023-02-28T00:07:48;6.00;;;3.73;;
71836;SDS011;59686;51.716;7.016;2023-02-28T00:10:17;6.80;;;3.83;;
71836;SDS011;59686;51.716;7.016;2023-02-28T00:12:48;4.80;;;3.43;;
71836;SDS011;59686;51.716;7.016;2023-02-28T00:15:15;5.50;;;3.77;;
71836;SDS011;59686;51.716;7.016;2023-02-28T00:17:41;6.80;;;3.80;;
71836;SDS011;59686;51.716;7.016;2023-02-28T00:20:07;5.40;;;4.13;;
71836;SDS011;59686;51.716;7.016;2023-02-28T00:22:35;7.77;;;4.17;;
71836;SDS011;59686;51.716;7.016;2023-02-28T00:25:03;5.87;;;3.97;;
71836;SDS011;59686;51.716;7.016;2023-02-28T00:27:29;6.53;;;3.70;;
71836;SDS011;59686;51.716;7.016;2023-02-28T00:29:55;4.93;;;3.50;;
71836;SDS011;59686;51.716;7.016;2023-02-28T00:32:21;6.03;;;4.00;;
71836;SDS011;59686;51.716;7.016;2023-02-28T00:34:46;6.17;;;4.00;;
71836;SDS011;59686;51.716;7.016;2023-02-28T00:37:12;5.87;;;3.70;;
71836;SDS011;59686;51.716;7.016;2023-02-28T00:39:38;7.83;;;3.70;;
71836;SDS011;59686;51.716;7.016;2023-02-28T00:42:04;5.33;;;3.67;;
71836;SDS011;59686;51.716;7.016;2023-02-28T00:44:31;6.07;;;3.77;;
71836;SDS011;59686;51.716;7.016;2023-02-28T00:46:57;5.70;;;3.60;;
71836;SDS011;59686;51.716;7.016;2023-02-28T00:49:24;5.80;;;3.77;;
71836;SDS011;59686;51.716;7.016;2023-02-28T00:51:51;5.67;;;3.40;;
71836;SDS011;59686;51.716;7.016;2023-02-28T00:54:17;4.90;;;3.43;;
71836;SDS011;59686;51.716;7.016;2023-02-28T00:56:44;5.27;;;3.03;;
71836;SDS011;59686;51.716;7.016;2023-02-28T00:59:11;4.77;;;3.30;;
71836;SDS011;59686;51.716;7.016;2023-02-28T01:01:37;6.47;;;3.20;;
71836;SDS011;59686;51.716;7.016;2023-02-28T01:04:03;4.70;;;3.30;;
71836;SDS011;59686;51.716;7.016;2023-02-28T01:06:31;4.53;;;3.40;;
71836;SDS011;59686;51.716;7.016;2023-02-28T01:08:57;4.17;;;3.17;;
71836;SDS011;59686;51.716;7.016;2023-02-28T01:11:23;5.40;;;2.90;;
71836;SDS011;59686;51.716;7.016;2023-02-28T01:13:49;4.60;;;2.93;;
71836;SDS011;59686;51.716;7.016;2023-02-28T01:16:15;4.90;;;3.07;;
71836;SDS011;59686;51.716;7.016;2023-02-28T01:18:41;4.13;;;3.00;;
71836;SDS011;59686;51.716;7.016;2023-02-28T01:21:08;4.10;;;2.90;;
71836;SDS011;59686;51.716;7.016;2023-02-28T01:23:37;4.53;;;2.87;;
71836;SDS011;59686;51.716;7.016;2023-02-28T01:26:04;4.87;;;3.00;;
71836;SDS011;59686;51.716;7.016;2023-02-28T01:28:34;4.23;;;2.77;;
71836;SDS011;59686;51.716;7.016;2023-02-28T01:31:00;3.50;;;2.63;;
71836;SDS011;59686;51.716;7.016;2023-02-28T01:33:30;4.30;;;3.07;;
71836;SDS011;59686;51.716;7.016;2023-02-28T01:36:00;3.83;;;2.77;;
71836;SDS011;59686;51.716;7.016;2023-02-28T01:38:29;3.80;;;2.80;;
71836;SDS011;59686;51.716;7.016;2023-02-28T01:40:55;3.47;;;2.53;;
71836;SDS011;59686;51.716;7.016;2023-02-28T01:46:11;3.63;;;2.60;;
71836;SDS011;59686;51.716;7.016;2023-02-28T01:48:39;4.20;;;2.60;;
71836;SDS011;59686;51.716;7.016;2023-02-28T01:51:28;2.70;;;2.43;;
71836;SDS011;59686;51.716;7.016;2023-02-28T01:54:00;4.43;;;2.80;;
71836;SDS011;59686;51.716;7.016;2023-02-28T01:56:31;3.23;;;2.70;;
71836;SDS011;59686;51.716;7.016;2023-02-28T01:59:02;3.43;;;2.57;;
71836;SDS011;59686;51.716;7.016;2023-02-28T02:01:28;3.17;;;2.40;;
71836;SDS011;59686;51.716;7.016;2023-02-28T02:03:57;5.50;;;2.70;;
71836;SDS011;59686;51.716;7.016;2023-02-28T02:06:25;5.30;;;3.03;;
71836;SDS011;59686;51.716;7.016;2023-02-28T02:08:55;3.40;;;2.50;;
71836;SDS011;59686;51.716;7.016;2023-02-28T02:11:21;2.70;;;2.30;;
71836;SDS011;59686;51.716;7.016;2023-02-28T02:14:10;4.17;;;2.40;;
71836;SDS011;59686;51.716;7.016;2023-02-28T02:22:35;3.27;;;2.40;;
71836;SDS011;59686;51.716;7.016;2023-02-28T02:36:33;2.77;;;2.30;;
71836;SDS011;59686;51.716;7.016;2023-02-28T02:41:49;3.40;;;2.30;;
71836;SDS011;59686;51.716;7.016;2023-02-28T02:44:20;3.33;;;2.37;;
71836;SDS011;59686;51.716;7.016;2023-02-28T02:46:55;3.47;;;2.37;;
71836;SDS011;59686;51.716;7.016;2023-02-28T02:49:28;2.60;;;2.40;;
71836;SDS011;59686;51.716;7.016;2023-02-28T02:51:57;3.47;;;2.70;;
71836;SDS011;59686;51.716;7.016;2023-02-28T02:54:32;2.60;;;2.10;;
71836;SDS011;59686;51.716;7.016;2023-02-28T02:57:02;2.97;;;2.40;;
71836;SDS011;59686;51.716;7.016;2023-02-28T02:59:33;3.67;;;2.20;;
71836;SDS011;59686;51.716;7.016;2023-02-28T03:02:03;3.17;;;2.40;;
71836;SDS011;59686;51.716;7.016;2023-02-28T03:04:34;3.10;;;2.60;;
71836;SDS011;59686;51.716;7.016;2023-02-28T03:07:10;3.03;;;2.23;;
71836;SDS011;59686;51.716;7.016;2023-02-28T03:09:36;3.43;;;2.50;;
71836;SDS011;59686;51.716;7.016;2023-02-28T03:12:02;2.63;;;2.30;;
71836;SDS011;59686;51.716;7.016;2023-02-28T03:14:32;3.03;;;2.43;;
71836;SDS011;59686;51.716;7.016;2023-02-28T03:22:52;3.30;;;2.20;;
71836;SDS011;59686;51.716;7.016;2023-02-28T03:25:32;4.50;;;2.60;;
71836;SDS011;59686;51.716;7.016;2023-02-28T03:28:30;3.67;;;2.30;;
71836;SDS011;59686;51.716;7.016;2023-02-28T03:31:21;2.07;;;1.80;;
71836;SDS011;59686;51.716;7.016;2023-02-28T03:34:01;3.43;;;2.50;;
71836;SDS011;59686;51.716;7.016;2023-02-28T03:36:51;2.67;;;2.17;;
71836;SDS011;59686;51.716;7.016;2023-02-28T03:39:21;2.37;;;2.00;;
71836;SDS011;59686;51.716;7.016;2023-02-28T03:42:11;3.73;;;2.23;;
71836;SDS011;59686;51.716;7.016;2023-02-28T03:44:57;2.20;;;1.97;;
71836;SDS011;59686;51.716;7.016;2023-02-28T03:47:31;2.93;;;2.20;;
71836;SDS011;59686;51.716;7.016;2023-02-28T03:50:24;2.70;;;2.10;;
71836;SDS011;59686;51.716;7.016;2023-02-28T03:52:58;4.33;;;2.30;;
71836;SDS011;59686;51.716;7.016;2023-02-28T03:55:30;4.40;;;2.30;;
71836;SDS011;59686;51.716;7.016;2023-02-28T04:01:06;2.50;;;1.83;;
71836;SDS011;59686;51.716;7.016;2023-02-28T04:03:37;4.83;;;2.30;;
71836;SDS011;59686;51.716;7.016;2023-02-28T04:06:04;4.03;;;2.30;;
71836;SDS011;59686;51.716;7.016;2023-02-28T04:08:33;2.30;;;2.10;;
71836;SDS011;59686;51.716;7.016;2023-02-28T04:11:04;3.33;;;2.03;;
71836;SDS011;59686;51.716;7.016;2023-02-28T04:13:38;3.57;;;1.97;;
71836;SDS011;59686;51.716;7.016;2023-02-28T04:16:07;3.77;;;2.23;;
71836;SDS011;59686;51.716;7.016;2023-02-28T04:18:40;3.23;;;2.10;;
71836;SDS011;59686;51.716;7.016;2023-02-28T04:21:08;4.10;;;2.10;;
71836;SDS011;59686;51.716;7.016;2023-02-28T04:23:35;3.40;;;2.27;;
71836;SDS011;59686;51.716;7.016;2023-02-28T04:26:00;2.67;;;2.07;;
71836;SDS011;59686;51.716;7.016;2023-02-28T04:28:28;3.27;;;2.20;;
71836;SDS011;59686;51.716;7.016;2023-02-28T04:30:58;2.53;;;1.83;;
71836;SDS011;59686;51.716;7.016;2023-02-28T04:33:27;2.50;;;2.10;;
71836;SDS011;59686;51.716;7.016;2023-02-28T04:36:03;3.03;;;2.03;;
71836;SDS011;59686;51.716;7.016;2023-02-28T04:38:35;3.20;;;2.13;;
71836;SDS011;59686;51.716;7.016;2023-02-28T04:41:02;4.07;;;2.40;;
71836;SDS011;59686;51.716;7.016;2023-02-28T04:43:36;2.90;;;2.30;;
71836;SDS011;59686;51.716;7.016;2023-02-28T04:46:03;2.87;;;2.33;;
71836;SDS011;59686;51.716;7.016;2023-02-28T04:48:30;4.47;;;2.60;;
71836;SDS011;59686;51.716;7.016;2023-02-28T04:51:01;3.90;;;2.50;;
71836;SDS011;59686;51.716;7.016;2023-02-28T04:53:28;3.63;;;2.63;;
71836;SDS011;59686;51.716;7.016;2023-02-28T04:55:55;4.13;;;2.90;;
71836;SDS011;59686;51.716;7.016;2023-02-28T04:58:21;3.87;;;2.50;;
71836;SDS011;59686;51.716;7.016;2023-02-28T05:01:04;6.83;;;3.30;;
71836;SDS011;59686;51.716;7.016;2023-02-28T05:03:39;3.87;;;2.77;;
71836;SDS011;59686;51.716;7.016;2023-02-28T05:06:08;5.40;;;2.90;;
71836;SDS011;59686;51.716;7.016;2023-02-28T05:08:52;5.13;;;3.17;;
71836;SDS011;59686;51.716;7.016;2023-02-28T05:11:25;4.50;;;3.13;;
71836;SDS011;59686;51.716;7.016;2023-02-28T05:13:54;4.47;;;2.87;;
71836;SDS011;59686;51.716;7.016;2023-02-28T05:16:20;4.00;;;2.97;;
71836;SDS011;59686;51.716;7.016;2023-02-28T05:18:46;4.70;;;3.00;;
71836;SDS011;59686;51.716;7.016;2023-02-28T05:21:20;4.30;;;3.10;;
71836;SDS011;59686;51.716;7.016;2023-02-28T05:24:04;4.53;;;3.10;;
71836;SDS011;59686;51.716;7.016;2023-02-28T05:26:38;5.53;;;3.27;;
71836;SDS011;59686;51.716;7.016;2023-02-28T05:29:08;4.70;;;3.20;;
71836;SDS011;59686;51.716;7.016;2023-02-28T05:31:34;5.67;;;3.03;;
71836;SDS011;59686;51.716;7.016;2023-02-28T05:34:00;4.63;;;3.30;;
71836;SDS011;59686;51.716;7.016;2023-02-28T05:36:26;5.10;;;3.00;;
71836;SDS011;59686;51.716;7.016;2023-02-28T05:38:52;4.87;;;2.90;;
71836;SDS011;59686;51.716;7.016;2023-02-28T05:41:18;3.50;;;2.77;;
71836;SDS011;59686;51.716;7.016;2023-02-28T05:43:45;4.57;;;2.97;;
71836;SDS011;59686;51.716;7.016;2023-02-28T05:46:11;3.83;;;2.80;;
71836;SDS011;59686;51.716;7.016;2023-02-28T05:48:38;3.63;;;2.90;;
71836;SDS011;59686;51.716;7.016;2023-02-28T05:51:05;4.90;;;3.40;;
71836;SDS011;59686;51.716;7.016;2023-02-28T05:53:32;4.57;;;3.00;;
71836;SDS011;59686;51.716;7.016;2023-02-28T05:55:59;5.37;;;3.27;;
71836;SDS011;59686;51.716;7.016;2023-02-28T05:58:25;5.50;;;3.30;;
71836;SDS011;59686;51.716;7.016;2023-02-28T06:00:55;3.53;;;2.73;;
71836;SDS011;59686;51.716;7.016;2023-02-28T06:03:25;3.60;;;3.10;;
71836;SDS011;59686;51.716;7.016;2023-02-28T06:05:51;4.13;;;3.03;;
71836;SDS011;59686;51.716;7.016;2023-02-28T06:08:16;3.37;;;2.63;;
71836;SDS011;59686;51.716;7.016;2023-02-28T06:10:43;4.57;;;3.07;;
71836;SDS011;59686;51.716;7.016;2023-02-28T06:13:11;3.47;;;2.60;;
71836;SDS011;59686;51.716;7.016;2023-02-28T06:15:37;4.40;;;2.77;;
71836;SDS011;59686;51.716;7.016;2023-02-28T06:18:04;3.90;;;2.80;;
71836;SDS011;59686;51.716;7.016;2023-02-28T06:20:30;3.53;;;2.90;;
71836;SDS011;59686;51.716;7.016;2023-02-28T06:22:56;3.93;;;2.90;;
71836;SDS011;59686;51.716;7.016;2023-02-28T06:25:26;3.87;;;2.93;;
71836;SDS011;59686;51.716;7.016;2023-02-28T06:27:52;3.43;;;2.97;;
71836;SDS011;59686;51.716;7.016;2023-02-28T06:30:18;3.10;;;2.80;;
71836;SDS011;59686;51.716;7.016;2023-02-28T06:32:50;4.37;;;2.80;;
71836;SDS011;59686;51.716;7.016;2023-02-28T06:35:17;6.23;;;2.77;;
71836;SDS011;59686;51.716;7.016;2023-02-28T06:37:42;4.30;;;2.97;;
71836;SDS011;59686;51.716;7.016;2023-02-28T06:40:09;5.43;;;2.70;;
71836;SDS011;59686;51.716;7.016;2023-02-28T06:42:35;4.80;;;3.43;;
71836;SDS011;59686;51.716;7.016;2023-02-28T06:45:01;5.40;;;2.97;;
71836;SDS011;59686;51.716;7.016;2023-02-28T06:47:30;4.37;;;3.20;;
71836;SDS011;59686;51.716;7.016;2023-02-28T06:49:56;4.80;;;2.80;;
71836;SDS011;59686;51.716;7.016;2023-02-28T06:52:21;3.53;;;2.57;;
71836;SDS011;59686;51.716;7.016;2023-02-28T06:54:47;4.63;;;3.03;;
71836;SDS011;59686;51.716;7.016;2023-02-28T06:57:24;5.70;;;2.80;;
71836;SDS011;59686;51.716;7.016;2023-02-28T06:59:53;3.90;;;2.83;;
71836;SDS011;59686;51.716;7.016;2023-02-28T07:02:19;2.63;;;2.43;;
71836;SDS011;59686;51.716;7.016;2023-02-28T07:04:44;4.47;;;3.00;;
71836;SDS011;59686;51.716;7.016;2023-02-28T07:07:10;4.13;;;3.00;;
71836;SDS011;59686;51.716;7.016;2023-02-28T07:09:36;3.67;;;3.10;;
71836;SDS011;59686;51.716;7.016;2023-02-28T07:12:01;3.17;;;2.60;;
71836;SDS011;59686;51.716;7.016;2023-02-28T07:14:27;4.50;;;2.93;;
71836;SDS011;59686;51.716;7.016;2023-02-28T07:16:53;4.70;;;3.13;;
71836;SDS011;59686;51.716;7.016;2023-02-28T07:19:19;4.50;;;2.90;;
71836;SDS011;59686;51.716;7.016;2023-02-28T07:21:44;4.27;;;3.30;;
71836;SDS011;59686;51.716;7.016;2023-02-28T07:24:10;4.30;;;3.20;;
71836;SDS011;59686;51.716;7.016;2023-02-28T07:26:36;4.43;;;3.30;;
71836;SDS011;59686;51.716;7.016;2023-02-28T07:29:01;4.63;;;3.13;;
71836;SDS011;59686;51.716;7.016;2023-02-28T07:31:27;4.60;;;3.60;;
71836;SDS011;59686;51.716;7.016;2023-02-28T07:33:53;4.97;;;3.00;;
71836;SDS011;59686;51.716;7.016;2023-02-28T07:36:22;4.27;;;3.20;;
71836;SDS011;59686;51.716;7.016;2023-02-28T07:38:50;5.73;;;3.37;;
71836;SDS011;59686;51.716;7.016;2023-02-28T07:41:16;4.23;;;2.97;;
71836;SDS011;59686;51.716;7.016;2023-02-28T07:43:46;5.47;;;3.30;;
71836;SDS011;59686;51.716;7.016;2023-02-28T07:46:13;4.63;;;3.20;;
71836;SDS011;59686;51.716;7.016;2023-02-28T07:48:40;3.77;;;3.10;;
71836;SDS011;59686;51.716;7.016;2023-02-28T07:51:06;4.00;;;3.10;;
71836;SDS011;59686;51.716;7.016;2023-02-28T07:53:32;4.50;;;3.30;;
71836;SDS011;59686;51.716;7.016;2023-02-28T07:56:00;4.90;;;3.27;;
71836;SDS011;59686;51.716;7.016;2023-02-28T07:58:27;4.43;;;3.10;;
71836;SDS011;59686;51.716;7.016;2023-02-28T08:00:54;4.67;;;3.20;;
71836;SDS011;59686;51.716;7.016;2023-02-28T08:03:21;5.00;;;3.00;;
71836;SDS011;59686;51.716;7.016;2023-02-28T08:05:51;3.87;;;3.20;;
71836;SDS011;59686;51.716;7.016;2023-02-28T08:08:17;4.57;;;2.73;;
71836;SDS011;59686;51.716;7.016;2023-02-28T08:10:43;4.30;;;3.17;;
71836;SDS011;59686;51.716;7.016;2023-02-28T08:13:09;5.00;;;3.13;;
71836;SDS011;59686;51.716;7.016;2023-02-28T08:15:35;4.37;;;3.20;;
71836;SDS011;59686;51.716;7.016;2023-02-28T08:18:03;6.00;;;3.70;;
71836;SDS011;59686;51.716;7.016;2023-02-28T08:20:29;4.67;;;3.10;;
71836;SDS011;59686;51.716;7.016;2023-02-28T08:22:55;4.50;;;3.03;;
71836;SDS011;59686;51.716;7.016;2023-02-28T08:25:21;3.93;;;2.80;;
71836;SDS011;59686;51.716;7.016;2023-02-28T08:27:47;3.70;;;2.93;;
71836;SDS011;59686;51.716;7.016;2023-02-28T08:30:13;4.33;;;2.77;;
71836;SDS011;59686;51.716;7.016;2023-02-28T08:32:39;3.80;;;2.80;;
71836;SDS011;59686;51.716;7.016;2023-02-28T08:35:06;3.80;;;3.10;;
71836;SDS011;59686;51.716;7.016;2023-02-28T08:37:34;4.63;;;2.60;;
71836;SDS011;59686;51.716;7.016;2023-02-28T08:39:59;4.77;;;2.83;;
71836;SDS011;59686;51.716;7.016;2023-02-28T08:42:25;3.13;;;2.73;;
71836;SDS011;59686;51.716;7.016;2023-02-28T08:44:51;3.23;;;2.67;;
71836;SDS011;59686;51.716;7.016;2023-02-28T08:47:19;3.10;;;2.70;;
71836;SDS011;59686;51.716;7.016;2023-02-28T08:49:45;3.53;;;2.57;;
71836;SDS011;59686;51.716;7.016;2023-02-28T08:52:11;3.57;;;2.60;;
71836;SDS011;59686;51.716;7.016;2023-02-28T08:54:36;2.50;;;2.30;;
71836;SDS011;59686;51.716;7.016;2023-02-28T08:57:03;3.20;;;2.50;;
71836;SDS011;59686;51.716;7.016;2023-02-28T08:59:29;2.50;;;2.30;;
71836;SDS011;59686;51.716;7.016;2023-02-28T09:01:58;3.80;;;2.63;;
71836;SDS011;59686;51.716;7.016;2023-02-28T09:04:24;3.57;;;2.33;;
71836;SDS011;59686;51.716;7.016;2023-02-28T09:06:49;2.93;;;2.20;;
71836;SDS011;59686;51.716;7.016;2023-02-28T09:09:15;3.20;;;2.20;;
71836;SDS011;59686;51.716;7.016;2023-02-28T09:11:41;3.23;;;2.27;;
71836;SDS011;59686;51.716;7.016;2023-02-28T09:14:07;2.63;;;2.13;;
71836;SDS011;59686;51.716;7.016;2023-02-28T09:16:33;2.70;;;2.27;;
71836;SDS011;59686;51.716;7.016;2023-02-28T09:18:59;3.93;;;2.50;;
71836;SDS011;59686;51.716;7.016;2023-02-28T09:21:26;3.67;;;2.37;;
71836;SDS011;59686;51.716;7.016;2023-02-28T09:23:51;3.27;;;2.27;;
71836;SDS011;59686;51.716;7.016;2023-02-28T09:26:19;2.57;;;1.90;;
71836;SDS011;59686;51.716;7.016;2023-02-28T09:28:49;2.70;;;1.77;;
71836;SDS011;59686;51.716;7.016;2023-02-28T09:31:18;2.33;;;2.00;;
71836;SDS011;59686;51.716;7.016;2023-02-28T09:33:47;2.70;;;1.90;;
71836;SDS011;59686;51.716;7.016;2023-02-28T09:36:13;2.37;;;2.00;;
71836;SDS011;59686;51.716;7.016;2023-02-28T09:38:39;1.97;;;1.70;;
71836;SDS011;59686;51.716;7.016;2023-02-28T09:41:22;2.17;;;1.97;;
71836;SDS011;59686;51.716;7.016;2023-02-28T09:43:52;2.07;;;1.80;;
71836;SDS011;59686;51.716;7.016;2023-02-28T09:49:11;2.93;;;1.93;;
71836;SDS011;59686;51.716;7.016;2023-02-28T09:54:28;2.33;;;1.80;;
71836;SDS011;59686;51.716;7.016;2023-02-28T10:04:47;3.03;;;1.60;;
71836;SDS011;59686;51.716;7.016;2023-02-28T10:07:38;2.83;;;1.80;;
71836;SDS011;59686;51.716;7.016;2023-02-28T10:12:55;2.03;;;1.60;;
71836;SDS011;59686;51.716;7.016;2023-02-28T10:15:24;1.60;;;1.50;;
71836;SDS011;59686;51.716;7.016;2023-02-28T10:18:06;2.00;;;1.50;;
71836;SDS011;59686;51.716;7.016;2023-02-28T10:20:38;2.37;;;1.67;;
71836;SDS011;59686;51.716;7.016;2023-02-28T10:25:38;2.80;;;1.60;;
71836;SDS011;59686;51.716;7.016;2023-02-28T10:30:32;2.20;;;1.57;;
71836;SDS011;59686;51.716;7.016;2023-02-28T10:33:02;3.40;;;1.60;;
71836;SDS011;59686;51.716;7.016;2023-02-28T10:35:28;1.97;;;1.63;;
71836;SDS011;59686;51.716;7.016;2023-02-28T10:37:57;2.80;;;1.73;;
71836;SDS011;59686;51.716;7.016;2023-02-28T10:40:30;2.27;;;1.53;;
71836;SDS011;59686;51.716;7.016;2023-02-28T10:45:38;2.63;;;1.60;;
71836;SDS011;59686;51.716;7.016;2023-02-28T10:53:14;1.50;;;1.40;;
71836;SDS011;59686;51.716;7.016;2023-02-28T10:55:49;3.20;;;1.73;;
71836;SDS011;59686;51.716;7.016;2023-02-28T11:01:15;1.47;;;1.37;;
71836;SDS011;59686;51.716;7.016;2023-02-28T11:03:57;2.47;;;1.50;;
71836;SDS011;59686;51.716;7.016;2023-02-28T11:06:28;2.90;;;1.60;;
71836;SDS011;59686;51.716;7.016;2023-02-28T11:08:56;1.70;;;1.43;;
71836;SDS011;59686;51.716;7.016;2023-02-28T11:11:25;1.70;;;1.50;;
71836;SDS011;59686;51.716;7.016;2023-02-28T11:13:54;1.50;;;1.40;;
71836;SDS011;59686;51.716;7.016;2023-02-28T11:16:35;3.83;;;1.63;;
71836;SDS011;59686;51.716;7.016;2023-02-28T11:19:03;2.63;;;1.50;;
71836;SDS011;59686;51.716;7.016;2023-02-28T11:21:35;2.13;;;1.50;;
71836;SDS011;59686;51.716;7.016;2023-02-28T11:25:06;1.80;;;1.40;;
71836;SDS011;59686;51.716;7.016;2023-02-28T11:27:01;2.27;;;1.70;;
71836;SDS011;59686;51.716;7.016;2023-02-28T11:29:28;2.93;;;1.60;;
71836;SDS011;59686;51.716;7.016;2023-02-28T11:32:05;3.13;;;1.83;;
71836;SDS011;59686;51.716;7.016;2023-02-28T11:34:41;1.90;;;1.50;;
71836;SDS011;59686;51.716;7.016;2023-02-28T11:37:12;3.83;;;1.50;;
71836;SDS011;59686;51.716;7.016;2023-02-28T11:39:43;3.03;;;1.83;;
71836;SDS011;59686;51.716;7.016;2023-02-28T11:52:53;1.90;;;1.50;;
71836;SDS011;59686;51.716;7.016;2023-02-28T11:55:35;1.70;;;1.60;;
71836;SDS011;59686;51.716;7.016;2023-02-28T12:22:53;2.30;;;1.70;;
71836;SDS011;59686;51.716;7.016;2023-02-28T12:27:33;3.70;;;2.00;;
71836;SDS011;59686;51.716;7.016;2023-02-28T12:30:16;4.00;;;1.80;;
71836;SDS011;59686;51.716;7.016;2023-02-28T12:33:05;2.07;;;1.70;;
71836;SDS011;59686;51.716;7.016;2023-02-28T12:35:34;2.37;;;1.60;;
71836;SDS011;59686;51.716;7.016;2023-02-28T12:38:27;4.17;;;2.00;;
71836;SDS011;59686;51.716;7.016;2023-02-28T12:40:58;2.00;;;1.80;;
71836;SDS011;59686;51.716;7.016;2023-02-28T12:43:30;2.60;;;1.93;;
71836;SDS011;59686;51.716;7.016;2023-02-28T12:46:19;2.80;;;1.73;;
71836;SDS011;59686;51.716;7.016;2023-02-28T12:51:37;1.87;;;1.70;;
71836;SDS011;59686;51.716;7.016;2023-02-28T12:59:48;2.10;;;1.80;;
71836;SDS011;59686;51.716;7.016;2023-02-28T13:13:14;1.90;;;1.60;;
71836;SDS011;59686;51.716;7.016;2023-02-28T13:15:56;3.00;;;1.90;;
71836;SDS011;59686;51.716;7.016;2023-02-28T13:21:02;2.40;;;1.80;;
71836;SDS011;59686;51.716;7.016;2023-02-28T13:23:41;5.80;;;2.10;;
71836;SDS011;59686;51.716;7.016;2023-02-28T13:34:46;1.90;;;1.70;;
71836;SDS011;59686;51.716;7.016;2023-02-28T13:37:33;2.63;;;2.10;;
71836;SDS011;59686;51.716;7.016;2023-02-28T13:40:22;4.33;;;1.90;;
71836;SDS011;59686;51.716;7.016;2023-02-28T13:43:01;2.10;;;1.90;;
71836;SDS011;59686;51.716;7.016;2023-02-28T13:45:28;2.67;;;1.90;;
71836;SDS011;59686;51.716;7.016;2023-02-28T13:47:56;2.93;;;2.20;;
71836;SDS011;59686;51.716;7.016;2023-02-28T14:04:25;3.93;;;2.07;;
71836;SDS011;59686;51.716;7.016;2023-02-28T14:06:56;2.50;;;2.20;;
71836;SDS011;59686;51.716;7.016;2023-02-28T14:09:31;3.33;;;2.50;;
71836;SDS011;59686;51.716;7.016;2023-02-28T14:15:04;2.40;;;1.90;;
71836;SDS011;59686;51.716;7.016;2023-02-28T14:17:51;2.27;;;2.07;;
71836;SDS011;59686;51.716;7.016;2023-02-28T14:20:19;3.80;;;2.33;;
71836;SDS011;59686;51.716;7.016;2023-02-28T14:22:55;3.47;;;2.10;;
71836;SDS011;59686;51.716;7.016;2023-02-28T14:25:40;3.00;;;1.90;;
71836;SDS011;59686;51.716;7.016;2023-02-28T14:31:13;2.20;;;1.80;;
71836;SDS011;59686;51.716;7.016;2023-02-28T14:36:50;3.57;;;1.97;;
71836;SDS011;59686;51.716;7.016;2023-02-28T14:39:20;2.63;;;1.97;;
71836;SDS011;59686;51.716;7.016;2023-02-28T14:41:51;1.97;;;1.77;;
71836;SDS011;59686;51.716;7.016;2023-02-28T14:46:50;3.37;;;2.10;;
71836;SDS011;59686;51.716;7.016;2023-02-28T14:49:28;3.47;;;2.20;;
71836;SDS011;59686;51.716;7.016;2023-02-28T14:52:05;2.27;;;1.97;;
71836;SDS011;59686;51.716;7.016;2023-02-28T14:54:34;2.17;;;1.97;;
71836;SDS011;59686;51.716;7.016;2023-02-28T14:57:01;3.07;;;2.07;;
71836;SDS011;59686;51.716;7.016;2023-02-28T14:59:33;2.10;;;1.90;;
71836;SDS011;59686;51.716;7.016;2023-02-28T15:05:10;3.07;;;1.80;;
71836;SDS011;59686;51.716;7.016;2023-02-28T15:07:48;2.27;;;1.80;;
71836;SDS011;59686;51.716;7.016;2023-02-28T15:10:21;2.10;;;1.90;;
71836;SDS011;59686;51.716;7.016;2023-02-28T15:13:00;2.87;;;1.97;;
71836;SDS011;59686;51.716;7.016;2023-02-28T15:21:18;2.20;;;2.00;;
71836;SDS011;59686;51.716;7.016;2023-02-28T15:26:51;2.10;;;1.90;;
71836;SDS011;59686;51.716;7.016;2023-02-28T15:29:21;5.43;;;2.30;;
71836;SDS011;59686;51.716;7.016;2023-02-28T15:31:50;2.13;;;1.80;;
71836;SDS011;59686;51.716;7.016;2023-02-28T15:34:41;2.30;;;1.77;;
71836;SDS011;59686;51.716;7.016;2023-02-28T15:40:03;1.80;;;1.60;;
71836;SDS011;59686;51.716;7.016;2023-02-28T15:42:41;1.97;;;1.77;;
71836;SDS011;59686;51.716;7.016;2023-02-28T15:45:28;2.13;;;1.90;;
71836;SDS011;59686;51.716;7.016;2023-02-28T15:48:29;4.90;;;1.90;;
71836;SDS011;59686;51.716;7.016;2023-02-28T15:58:50;1.97;;;1.77;;
71836;SDS011;59686;51.716;7.016;2023-02-28T16:01:31;2.77;;;2.00;;
71836;SDS011;59686;51.716;7.016;2023-02-28T16:04:00;2.17;;;1.83;;
71836;SDS011;59686;51.716;7.016;2023-02-28T16:06:35;2.40;;;1.90;;
71836;SDS011;59686;51.716;7.016;2023-02-28T16:09:06;2.10;;;1.80;;
71836;SDS011;59686;51.716;7.016;2023-02-28T16:11:35;2.73;;;2.00;;
71836;SDS011;59686;51.716;7.016;2023-02-28T16:14:04;2.13;;;1.90;;
71836;SDS011;59686;51.716;7.016;2023-02-28T16:16:30;3.10;;;2.10;;
71836;SDS011;59686;51.716;7.016;2023-02-28T16:18:57;3.33;;;1.80;;
71836;SDS011;59686;51.716;7.016;2023-02-28T16:21:25;3.20;;;2.10;;
71836;SDS011;59686;51.716;7.016;2023-02-28T16:23:54;2.20;;;2.00;;
71836;SDS011;59686;51.716;7.016;2023-02-28T16:26:23;1.83;;;1.50;;
71836;SDS011;59686;51.716;7.016;2023-02-28T16:28:51;3.13;;;2.00;;
71836;SDS011;59686;51.716;7.016;2023-02-28T16:31:17;3.30;;;1.90;;
71836;SDS011;59686;51.716;7.016;2023-02-28T16:33:43;4.33;;;1.90;;
71836;SDS011;59686;51.716;7.016;2023-02-28T16:36:23;2.03;;;1.73;;
71836;SDS011;59686;51.716;7.016;2023-02-28T16:38:52;3.73;;;2.13;;
71836;SDS011;59686;51.716;7.016;2023-02-28T16:41:24;2.10;;;1.80;;
71836;SDS011;59686;51.716;7.016;2023-02-28T16:43:53;3.03;;;2.00;;
71836;SDS011;59686;51.716;7.016;2023-02-28T16:46:24;3.10;;;2.10;;
71836;SDS011;59686;51.716;7.016;2023-02-28T16:48:59;2.33;;;2.00;;
71836;SDS011;59686;51.716;7.016;2023-02-28T16:51:28;2.40;;;2.00;;
71836;SDS011;59686;51.716;7.016;2023-02-28T16:53:55;2.43;;;1.97;;
71836;SDS011;59686;51.716;7.016;2023-02-28T16:56:22;2.67;;;1.90;;
71836;SDS011;59686;51.716;7.016;2023-02-28T16:58:49;2.73;;;1.60;;
71836;SDS011;59686;51.716;7.016;2023-02-28T17:01:16;3.30;;;1.93;;
71836;SDS011;59686;51.716;7.016;2023-02-28T17:03:47;2.93;;;1.80;;
71836;SDS011;59686;51.716;7.016;2023-02-28T17:06:17;2.73;;;2.07;;
71836;SDS011;59686;51.716;7.016;2023-02-28T17:08:49;4.07;;;2.20;;
71836;SDS011;59686;51.716;7.016;2023-02-28T17:11:15;3.40;;;2.20;;
71836;SDS011;59686;51.716;7.016;2023-02-28T17:13:42;3.73;;;2.30;;
71836;SDS011;59686;51.716;7.016;2023-02-28T17:16:14;3.50;;;2.03;;
71836;SDS011;59686;51.716;7.016;2023-02-28T17:18:55;3.77;;;2.30;;
71836;SDS011;59686;51.716;7.016;2023-02-28T17:21:26;4.43;;;2.60;;
71836;SDS011;59686;51.716;7.016;2023-02-28T17:23:53;4.73;;;2.70;;
71836;SDS011;59686;51.716;7.016;2023-02-28T17:26:20;4.93;;;3.33;;
71836;SDS011;59686;51.716;7.016;2023-02-28T17:28:49;5.90;;;3.90;;
71836;SDS011;59686;51.716;7.016;2023-02-28T17:31:16;8.97;;;5.67;;
71836;SDS011;59686;51.716;7.016;2023-02-28T17:33:42;7.13;;;5.17;;
71836;SDS011;59686;51.716;7.016;2023-02-28T17:36:15;7.40;;;5.13;;
71836;SDS011;59686;51.716;7.016;2023-02-28T17:38:42;8.70;;;5.67;;
71836;SDS011;59686;51.716;7.016;2023-02-28T17:41:13;10.03;;;7.03;;
71836;SDS011;59686;51.716;7.016;2023-02-28T17:43:39;12.47;;;8.13;;
71836;SDS011;59686;51.716;7.016;2023-02-28T17:46:14;14.23;;;8.53;;
71836;SDS011;59686;51.716;7.016;2023-02-28T17:48:43;14.07;;;8.97;;
71836;SDS011;59686;51.716;7.016;2023-02-28T17:51:11;16.47;;;10.37;;
71836;SDS011;59686;51.716;7.016;2023-02-28T17:53:38;15.53;;;9.30;;
71836;SDS011;59686;51.716;7.016;2023-02-28T17:56:17;14.37;;;9.40;;
71836;SDS011;59686;51.716;7.016;2023-02-28T17:58:50;14.13;;;9.30;;
71836;SDS011;59686;51.716;7.016;2023-02-28T18:01:18;12.00;;;8.40;;
71836;SDS011;59686;51.716;7.016;2023-02-28T18:03:47;13.03;;;8.43;;
71836;SDS011;59686;51.716;7.016;2023-02-28T18:06:14;12.77;;;9.10;;